Nearby METAR Reports

 

KVCT - Victoria, Texas, USA
Distance from station: E 12mi, 20km
Updated: 10/21/2018 8:51pm
Clear
Clear
 Wind from N
Wind: N 6 mph , 9 km/h
Temperature: 61°F , 16°C
Dew Point: 55°F , 13°C
Humidity: 83%
Barometer: 30.18 inHg , 1022 hPa
Clouds: Clear
Visibility: 10 miles , 16 km
2018/10/22 01:51 KVCT 220151Z 01005KT 10SM CLR 16/13 A3018 RMK AO2 SLP219 T01610128
KPKV - Port Lavaca, Texas, USA
Distance from station: ESE 31mi, 50km
Updated: 10/21/2018 8:55pm
Clear
Clear
 Wind from NNE
Wind: NNE 6 mph , 9 km/h
Temperature: 66°F , 19°C
Dew Point: 55°F , 13°C
Humidity: 68%
Barometer: 30.18 inHg , 1022 hPa
Clouds: Clear
Visibility: 10 miles , 16 km
2018/10/22 01:55 KPKV 220155Z AUTO 02005KT 10SM CLR 19/13 A3018 RMK AO2 T01850134
 
KT20 - Gonzales Muni, Texas, USA
Distance from station: NNW 50mi, 81km
Updated: 10/21/2018 8:55pm
Clear
Clear
 Wind from NNE
Wind: NNE 3 mph , 6 km/h
Temperature: 61°F , 16°C
Dew Point: 52°F , 11°C
Humidity: 72%
Barometer: 30.19 inHg , 1022.4 hPa
Clouds: Clear
Visibility: 10 miles , 16 km
2018/10/22 01:55 KT20 220155Z AUTO 03003KT 10SM CLR 16/11 A3019 RMK AO2 T01630105
KBEA - Beeville Muni, Texas, USA
Distance from station: SW 51mi, 83km
Updated: 10/21/2018 8:55pm
Clear
Clear
 Wind from N
Wind: N 3 mph , 6 km/h
Temperature: 61°F , 16°C
Dew Point: 57°F , 14°C
Humidity: 88%
Barometer: 30.18 inHg , 1022 hPa
Clouds: Clear
Visibility: 10 miles , 16 km
2018/10/22 01:55 KBEA 220155Z AUTO 36003KT 10SM CLR 16/14 A3018 RMK AO2 T01560135
 
KRKP - Rockport, Texas, USA
Distance from station: S 53mi, 86km
Updated: 10/21/2018 8:53pm
Overcast
Overcast
 Wind from N
Wind: N 9 mph , 15 km/h
Temperature: 66°F , 19°C
Dew Point: 54°F , 12°C
Humidity: 64%
Barometer: 30.16 inHg , 1021.3 hPa
Clouds: Overcast
Visibility: 10 miles , 16 km
Cloud details: Overcast 6000 ft
2018/10/22 01:53 KRKP 220153Z AUTO 01008KT 10SM OVC060 19/12 A3016 RMK AO2 SLP215 T01940122
KPSX - Palacios, Texas, USA
Distance from station: E 55mi, 88km
Updated: 10/21/2018 8:53pm
Clear
Clear
 Wind from NNE
Wind: NNE 7 mph , 11 km/h
Temperature: 63°F , 17°C
Dew Point: 57°F , 14°C
Humidity: 83%
Barometer: 30.17 inHg , 1021.7 hPa
Clouds: Clear
Visibility: 10 miles , 16 km
2018/10/22 01:53 KPSX 220153Z AUTO 02006KT 10SM CLR 17/14 A3017 RMK AO2 SLP214 T01720139
 
KTFP - Ingleside/Tp Mcc, Texas, USA
Distance from station: S 65mi, 104km
Updated: 10/21/2018 8:55pm
Overcast
Overcast
 Wind from NNE
Wind: NNE 9 mph , 15 km/h
Temperature: 68°F , 20°C
Dew Point: 57°F , 14°C
Humidity: 69%
Barometer: 30.16 inHg , 1021.3 hPa
Clouds: Overcast
Visibility: 10 miles , 16 km
Cloud details: Overcast 6000 ft
2018/10/22 01:55 KTFP 220155Z AUTO 03008KT 10SM OVC060 20/14 A3016 RMK AO2 T02020136 PNO
K66R - Columbus, Texas, USA
Distance from station: NE 66mi, 106km
Updated: 10/21/2018 6:10pm
NOT Current
Clear
Clear
 Wind from calm
Wind: Calm
Temperature: 66°F , 19°C
Dew Point: 48°F , 9°C
Humidity: 52%
Barometer: 30.18 inHg , 1022 hPa
Clouds: Clear
Visibility: 10 miles , 16 km
2018/10/21 23:10 K66R 212310Z AUTO 00000KT 10SM CLR 19/09 A3018 RMK AO2 T01930090
 
KARM - Wharton, Texas, USA
Distance from station: ENE 66mi, 106km
Updated: 10/21/2018 8:55pm
Clear
Clear
 Wind from N
Wind: N 3 mph , 6 km/h
Temperature: 59°F , 15°C
Dew Point: 50°F , 10°C
Humidity: 72%
Barometer: 30.19 inHg , 1022.4 hPa
Clouds: Clear
Visibility: 10 miles , 16 km
2018/10/22 01:55 KARM 220155Z AUTO 01003KT 10SM CLR 15/10 A3019 RMK AO2 T01530104
KRAS - Port Aransas, Texas, USA
Distance from station: S 71mi, 115km
Updated: 10/21/2018 8:55pm
Overcast
Overcast
 Wind from N
Wind: N 12 mph , 19 km/h
Temperature: 68°F , 20°C
Dew Point: 57°F , 14°C
Humidity: 69%
Barometer: 30.17 inHg , 1021.7 hPa
Clouds: Overcast
Visibility: 10 miles , 16 km
Cloud details: Overcast 5500 ft
2018/10/22 01:55 KRAS 220155Z AUTO 01010KT 10SM OVC055 20/14 A3017 RMK AO2 T02040138
 
KELA - Eagle Lake, Texas, USA
Distance from station: NE 72mi, 115km
Updated: 10/21/2018 8:55pm
Clear
Clear
 Wind from NNE
Wind: NNE 5 mph , 7 km/h
Temperature: 61°F , 16°C
Dew Point: 55°F , 13°C
Humidity: 83%
Barometer: 30.19 inHg , 1022.4 hPa
Clouds: Clear
Visibility: 10 miles , 16 km
2018/10/22 01:55 KELA 220155Z AUTO 02004KT 10SM CLR 16/13 A3019 RMK AO2 T01560129
K3T5 - La Grange, Texas, USA
Distance from station: N 73mi, 118km
Updated: 10/21/2018 8:55pm
Clear
Clear
 Wind from calm
Wind: Calm
Temperature: 59°F , 15°C
Dew Point: 57°F , 14°C
Humidity: 94%
Barometer: 30.18 inHg , 1022 hPa
Clouds: Clear
Visibility: 10 miles , 16 km
2018/10/22 01:55 K3T5 220155Z AUTO 00000KT 10SM CLR 15/14 A3018 RMK AO2 T01520135
 
KBYY - Bay City, Texas, USA
Distance from station: E 77mi, 124km
Updated: 10/21/2018 8:55pm
Clear
Clear
 Wind from calm
Wind: Calm
Temperature: 63°F , 17°C
Dew Point: 54°F , 12°C
Humidity: 73%
Barometer: 30.18 inHg , 1022 hPa
Clouds: Clear
Visibility: 10 miles , 16 km
2018/10/22 01:55 KBYY 220155Z AUTO 00000KT 10SM CLR 17/12 A3018 RMK AO2 T01710120
KCRP - Corpus Christi, Texas, USA
Distance from station: SSW 78mi, 126km
Updated: 10/21/2018 8:51pm
Overcast
Overcast
 Wind from N
Wind: N 10 mph , 17 km/h
Temperature: 66°F , 19°C
Dew Point: 55°F , 13°C
Humidity: 68%
Barometer: 30.16 inHg , 1021.3 hPa
Clouds: Overcast
Visibility: 10 miles , 16 km
Cloud details: Overcast 5000 ft
2018/10/22 01:51 KCRP 220151Z 01009KT 10SM OVC050 19/13 A3016 RMK AO2 SLP213 T01940128 $
 
KNGP - C. Christi Nas, Texas, USA
Distance from station: S 81mi, 130km
Updated: 10/21/2018 8:56pm
Overcast
Overcast
 Wind from NNE
Wind: NNE 13 mph , 20 km/h
Temperature: 72°F , 22°C
Dew Point: 57°F , 14°C
Humidity: 61%
Barometer: 30.15 inHg , 1021 hPa
Clouds: Overcast
Visibility: 10 miles , 16 km
Cloud details: Overcast 5500 ft
2018/10/22 01:56 KNGP 220156Z AUTO 02011KT 10SM OVC055 22/14 A3015 RMK AO2 SLP208 T02170144 $
KRBO - Robstown/Nueces, Texas, USA
Distance from station: SSW 81mi, 130km
Updated: 10/21/2018 8:55pm
Overcast
Overcast
 Wind from N
Wind: N 8 mph , 13 km/h
Temperature: 66°F , 19°C
Dew Point: 55°F , 13°C
Humidity: 68%
Barometer: 30.18 inHg , 1022 hPa
Clouds: Overcast
Visibility: 10 miles , 16 km
Cloud details: Overcast 5000 ft
2018/10/22 01:55 KRBO 220155Z AUTO 01007KT 10SM OVC050 19/13 A3018 RMK AO2 T01910126
 
KBAZ - New Braunfels, Texas, USA
Distance from station: NW 81mi, 131km
Updated: 10/21/2018 8:51pm
Clear
Clear
 Wind from N
Wind: N 7 mph , 11 km/h
Temperature: 55°F , 13°C
Dew Point: 48°F , 9°C
Humidity: 77%
Barometer: 30.19 inHg , 1022.4 hPa
Clouds: Clear
Visibility: 10 miles , 16 km
2018/10/22 01:51 KBAZ 220151Z AUTO 01006KT 10SM CLR 13/09 A3019 RMK AO2 SLP221 T01280089 $
KRND - Randolph Afb, Texas, USA
Distance from station: NW 82mi, 132km
Updated: 10/21/2018 8:56pm
Clear
Clear
 Wind from N
Wind: N 3 mph , 6 km/h
Temperature: 59°F , 15°C
Dew Point: 52°F , 11°C
Humidity: 77%
Barometer: 30.20 inHg , 1022.7 hPa
Clouds: Clear
Visibility: 10 miles , 16 km
2018/10/22 01:56 KRND 220156Z AUTO 35003KT 10SM CLR 15/11 A3020 RMK AO2 SLP225 T01460106 $
 
KHYI - San Marcos, Texas, USA
Distance from station: NNW 84mi, 135km
Updated: 10/21/2018 6:56pm
NOT Current
Clear
Clear
 
Temperature: 63°F , 17°C
Dew Point: 52°F , 11°C
Humidity: 68%
Clouds: Clear
Visibility: 9 miles , 14 km
2018/10/21 23:56 KHYI 212356Z AUTO 9SM CLR 17/11 RMK AO2 SLPNO T01720106 10228 20172 $
KPEZ - Pleasanton Muni, Texas, USA
Distance from station: W 84mi, 135km
Updated: 10/21/2018 8:55pm
Clear
Clear
 Wind from calm
Wind: Calm
Temperature: 61°F , 16°C
Dew Point: 54°F , 12°C
Humidity: 77%
Barometer: 30.21 inHg , 1023 hPa
Clouds: Clear
Visibility: 10 miles , 16 km
2018/10/22 01:55 KPEZ 220155Z AUTO 00000KT 10SM CLR 16/12 A3021 RMK AO2 T01600117